TVF25CB LFPO-LGKR
Flight info
| Callsign | TVF25CB |
|---|---|
| Flight time | N/A |
| Altitude | 33000 |
| Route | OKASI DCT OKEKO DCT MOU DCT MADIV DCT MOKIP DCT TUFTA DCT GEVEA DCT ORSUD DCT BIBAN DCT VAPUP DCT KOFER DCT RODON DCT LIMJA N732 PITAS |
| Aircraft | B738/M-SDE2E3FGHIRWXY/LB1 |
Departure
| Time | 2026-05-01 10:13 |
|---|---|
| Airport | Paris-Orly Airport (LFPO) |
Arrival
| Time | N/A |
|---|---|
| Airport | Corfu Ioannis Kapodistrias International Airport (LGKR) |
| Time | Latitude | Longitude | Altitude | Speed | Heading |
|---|---|---|---|---|---|
| 2026-05-01 09:33 | 48.72416 | 2.36567 | 284 ft | 0 kts | 157° |
| 2026-05-01 09:58 | 48.72425 | 2.36561 | 284 ft | 2 kts | 154° |
| 2026-05-01 09:58 | 48.72438 | 2.36552 | 284 ft | 2 kts | 159° |
| 2026-05-01 09:58 | 48.72452 | 2.36543 | 284 ft | 2 kts | 157° |
| 2026-05-01 09:58 | 48.72466 | 2.36536 | 285 ft | 2 kts | 188° |
| 2026-05-01 09:59 | 48.72480 | 2.36547 | 285 ft | 2 kts | 233° |
| 2026-05-01 09:59 | 48.72483 | 2.36558 | 285 ft | 0 kts | 258° |
| 2026-05-01 09:59 | 48.72485 | 2.36567 | 285 ft | 0 kts | 255° |
| 2026-05-01 10:05 | 48.72485 | 2.36566 | 285 ft | 0 kts | 255° |
| 2026-05-01 10:06 | 48.72478 | 2.36530 | 285 ft | 5 kts | 255° |
| 2026-05-01 10:06 | 48.72465 | 2.36458 | 283 ft | 9 kts | 254° |
| 2026-05-01 10:06 | 48.72446 | 2.36351 | 281 ft | 10 kts | 254° |
| 2026-05-01 10:06 | 48.72426 | 2.36247 | 281 ft | 9 kts | 254° |
| 2026-05-01 10:07 | 48.72409 | 2.36155 | 281 ft | 8 kts | 253° |
| 2026-05-01 10:07 | 48.72390 | 2.36057 | 281 ft | 11 kts | 254° |
| 2026-05-01 10:07 | 48.72367 | 2.35932 | 281 ft | 12 kts | 254° |
| 2026-05-01 10:07 | 48.72342 | 2.35797 | 278 ft | 13 kts | 254° |
| 2026-05-01 10:08 | 48.72246 | 2.35602 | 278 ft | 11 kts | 183° |
| 2026-05-01 10:08 | 48.72174 | 2.35622 | 279 ft | 9 kts | 164° |
| 2026-05-01 10:08 | 48.72106 | 2.35652 | 278 ft | 10 kts | 161° |
| 2026-05-01 10:09 | 48.72049 | 2.35706 | 279 ft | 8 kts | 132° |
| 2026-05-01 10:09 | 48.72032 | 2.35743 | 280 ft | 1 kts | 121° |
| 2026-05-01 10:09 | 48.72031 | 2.35745 | 280 ft | 0 kts | 121° |
| 2026-05-01 10:10 | 48.72020 | 2.35773 | 280 ft | 6 kts | 121° |
| 2026-05-01 10:11 | 48.71994 | 2.35836 | 281 ft | 6 kts | 122° |
| 2026-05-01 10:11 | 48.71963 | 2.35885 | 281 ft | 6 kts | 141° |
| 2026-05-01 10:11 | 48.71955 | 2.35934 | 281 ft | 2 kts | 77° |
| 2026-05-01 10:11 | 48.71956 | 2.35941 | 281 ft | 0 kts | 75° |
| 2026-05-01 10:12 | 48.71970 | 2.36019 | 281 ft | 31 kts | 74° |
| 2026-05-01 10:12 | 48.72341 | 2.38027 | 288 ft | 158 kts | 74° |
| 2026-05-01 10:13 | 48.72665 | 2.39757 | 730 ft | 170 kts | 74° |
| 2026-05-01 10:13 | 48.73015 | 2.41443 | 1423 ft | 170 kts | 74° |
| 2026-05-01 10:13 | 48.73325 | 2.43209 | 1981 ft | 177 kts | 78° |
| 2026-05-01 10:14 | 48.74001 | 2.47089 | 2686 ft | 205 kts | 76° |
| 2026-05-01 10:14 | 48.74243 | 2.49309 | 3029 ft | 220 kts | 88° |
| 2026-05-01 10:14 | 48.74258 | 2.51681 | 3445 ft | 232 kts | 91° |
| 2026-05-01 10:14 | 48.74280 | 2.54180 | 3920 ft | 244 kts | 89° |
| 2026-05-01 10:15 | 48.74283 | 2.56836 | 4385 ft | 255 kts | 98° |
| 2026-05-01 10:15 | 48.73601 | 2.59348 | 4867 ft | 263 kts | 129° |
| 2026-05-01 10:15 | 48.72181 | 2.61060 | 5492 ft | 266 kts | 154° |
| 2026-05-01 10:15 | 48.70435 | 2.61951 | 6234 ft | 265 kts | 167° |
| 2026-05-01 10:16 | 48.68579 | 2.62322 | 6939 ft | 267 kts | 174° |
| 2026-05-01 10:16 | 48.66706 | 2.62501 | 7584 ft | 270 kts | 175° |
| 2026-05-01 10:16 | 48.62892 | 2.62519 | 8867 ft | 277 kts | 187° |
| 2026-05-01 10:17 | 48.61072 | 2.61602 | 9504 ft | 280 kts | 199° |
| 2026-05-01 10:17 | 48.57218 | 2.60859 | 10677 ft | 286 kts | 176° |
| 2026-05-01 10:17 | 48.55160 | 2.61003 | 11004 ft | 301 kts | 175° |
| 2026-05-01 10:18 | 48.50760 | 2.61333 | 11700 ft | 327 kts | 175° |
| 2026-05-01 10:18 | 48.48429 | 2.61479 | 12042 ft | 341 kts | 176° |
| 2026-05-01 10:18 | 48.45998 | 2.61623 | 12346 ft | 354 kts | 176° |
| 2026-05-01 10:19 | 48.43484 | 2.61765 | 12602 ft | 368 kts | 176° |
| 2026-05-01 10:19 | 48.40847 | 2.61910 | 12926 ft | 380 kts | 176° |
| 2026-05-01 10:19 | 48.38139 | 2.62059 | 13483 ft | 386 kts | 176° |
| 2026-05-01 10:20 | 48.32760 | 2.62369 | 14890 ft | 388 kts | 175° |
| 2026-05-01 10:20 | 48.30056 | 2.62742 | 15551 ft | 390 kts | 169° |
| 2026-05-01 10:20 | 48.27412 | 2.63631 | 16219 ft | 391 kts | 161° |
| 2026-05-01 10:20 | 48.24863 | 2.65063 | 16860 ft | 392 kts | 156° |
| 2026-05-01 10:21 | 48.22406 | 2.66785 | 17505 ft | 394 kts | 153° |
| 2026-05-01 10:21 | 48.17502 | 2.70584 | 18742 ft | 399 kts | 152° |
| 2026-05-01 10:21 | 48.15029 | 2.72537 | 19317 ft | 403 kts | 152° |
| 2026-05-01 10:22 | 48.10035 | 2.76432 | 20465 ft | 409 kts | 152° |
| 2026-05-01 10:22 | 48.04909 | 2.80173 | 21579 ft | 415 kts | 155° |
| 2026-05-01 10:23 | 48.02276 | 2.81861 | 22161 ft | 416 kts | 156° |
| 2026-05-01 10:23 | 47.97145 | 2.85047 | 23111 ft | 423 kts | 156° |
| 2026-05-01 10:23 | 47.94409 | 2.86739 | 23633 ft | 425 kts | 156° |
| 2026-05-01 10:24 | 47.88936 | 2.90143 | 24677 ft | 429 kts | 156° |
| 2026-05-01 10:24 | 47.83373 | 2.93630 | 25528 ft | 437 kts | 156° |
| 2026-05-01 10:25 | 47.77790 | 2.97140 | 26528 ft | 439 kts | 156° |
| 2026-05-01 10:25 | 47.74532 | 2.99188 | 27146 ft | 440 kts | 155° |
| 2026-05-01 10:26 | 47.71716 | 3.00958 | 27770 ft | 437 kts | 155° |
| 2026-05-01 10:26 | 47.68925 | 3.02710 | 28389 ft | 435 kts | 155° |
| 2026-05-01 10:26 | 47.63445 | 3.06140 | 29664 ft | 427 kts | 155° |
| 2026-05-01 10:27 | 47.58015 | 3.09536 | 30960 ft | 417 kts | 156° |
| 2026-05-01 10:27 | 47.52699 | 3.12859 | 31558 ft | 420 kts | 156° |
| 2026-05-01 10:28 | 47.49975 | 3.14558 | 31675 ft | 426 kts | 156° |
| 2026-05-01 10:28 | 47.44486 | 3.17977 | 32156 ft | 431 kts | 156° |
| 2026-05-01 10:28 | 47.41734 | 3.19687 | 32561 ft | 429 kts | 156° |